Time;durP1;ratioP1;P1;durP2;ratioP2;P2;SDS_P1;SDS_P2;PMS_P1;PMS_P2;Temp;Humidity;BMP_temperature;BMP_pressure;BME280_temperature;BME280_humidity;BME280_pressure;Samples;Min_cycle;Max_cycle;Signal;HPM_P1;HPM_P2
2022/03/21 00:00:50;;;;;;;9.68;5.78;;;20.70;56.20;;;;;;5020313;28;20030;-60
2022/03/21 00:03:17;;;;;;;8.55;5.40;;;20.60;56.20;;;;;;5023291;28;20025;-60
2022/03/21 00:05:45;;;;;;;9.60;5.68;;;20.70;56.30;;;;;;5016649;28;20030;-60
2022/03/21 00:08:11;;;;;;;9.93;5.93;;;20.60;56.20;;;;;;5022054;28;20033;-60
2022/03/21 00:10:39;;;;;;;9.52;5.70;;;20.60;56.40;;;;;;5012472;28;20608;-60
2022/03/21 00:13:05;;;;;;;8.00;5.32;;;20.60;56.40;;;;;;5014089;28;20029;-60
2022/03/21 00:15:32;;;;;;;9.52;5.97;;;20.60;56.40;;;;;;5017853;28;20498;-60
2022/03/21 00:18:02;;;;;;;9.00;5.80;;;20.50;56.40;;;;;;5015835;28;20104;-60
2022/03/21 00:20:29;;;;;;;9.07;5.68;;;20.50;56.40;;;;;;5016083;28;20116;-60
2022/03/21 00:22:54;;;;;;;9.77;5.60;;;20.50;56.40;;;;;;5018417;28;20025;-60
2022/03/21 00:25:20;;;;;;;8.30;5.40;;;20.50;56.40;;;;;;5012116;28;20029;-60
2022/03/21 00:27:46;;;;;;;9.25;5.82;;;20.50;56.60;;;;;;5022571;28;20800;-60
2022/03/21 00:30:12;;;;;;;8.60;5.40;;;20.50;56.60;;;;;;5027240;28;20037;-60
2022/03/21 00:32:37;;;;;;;8.80;5.47;;;20.50;56.60;;;;;;5021410;28;20022;-60
2022/03/21 00:35:05;;;;;;;9.27;5.65;;;20.50;56.60;;;;;;5049952;28;20039;-60
2022/03/21 00:37:31;;;;;;;8.73;5.68;;;20.40;56.60;;;;;;5020354;28;20029;-60
2022/03/21 00:39:58;;;;;;;8.20;5.43;;;20.40;56.60;;;;;;5048474;28;20029;-60
2022/03/21 00:42:24;;;;;;;9.75;5.70;;;20.40;56.60;;;;;;5023162;28;20695;-60
2022/03/21 00:44:50;;;;;;;9.40;5.88;;;20.40;56.60;;;;;;5054864;28;20040;-60
2022/03/21 00:47:16;;;;;;;11.30;5.70;;;20.30;56.70;;;;;;5019634;28;20025;-60
2022/03/21 00:49:43;;;;;;;8.90;5.50;;;20.30;56.60;;;;;;5014967;28;20681;-61
2022/03/21 00:52:09;;;;;;;8.77;5.68;;;20.30;56.70;;;;;;5019014;28;20029;-60
2022/03/21 00:54:34;;;;;;;9.38;5.65;;;20.30;56.70;;;;;;5019354;28;20041;-60
2022/03/21 00:57:00;;;;;;;9.50;5.82;;;20.30;56.70;;;;;;5021534;28;20029;-60
2022/03/21 00:59:26;;;;;;;9.00;5.60;;;20.30;56.80;;;;;;5021267;28;20624;-60
2022/03/21 01:01:51;;;;;;;9.30;5.88;;;20.20;56.70;;;;;;5017633;28;20474;-60
2022/03/21 01:04:17;;;;;;;8.70;5.68;;;20.20;56.70;;;;;;5017981;28;20040;-60
2022/03/21 01:06:42;;;;;;;8.95;5.60;;;20.20;56.70;;;;;;5014791;28;20033;-61
2022/03/21 01:09:11;;;;;;;9.88;5.65;;;20.20;56.70;;;;;;5017344;28;20030;-61
2022/03/21 01:11:36;;;;;;;8.73;5.50;;;20.20;56.70;;;;;;5021475;28;20041;-60
2022/03/21 01:14:02;;;;;;;8.75;5.80;;;20.10;56.70;;;;;;5020688;28;20029;-60
2022/03/21 01:16:28;;;;;;;8.43;5.72;;;20.20;56.80;;;;;;5016626;28;20041;-60
2022/03/21 01:18:53;;;;;;;8.52;5.40;;;20.10;56.80;;;;;;5015684;28;20021;-60
2022/03/21 01:21:19;;;;;;;9.15;5.88;;;20.10;56.80;;;;;;5024932;28;20045;-60
2022/03/21 01:23:45;;;;;;;8.65;5.50;;;20.10;56.80;;;;;;5017334;28;20025;-60
2022/03/21 01:26:10;;;;;;;9.52;5.68;;;20.10;56.80;;;;;;5016490;28;20033;-60
2022/03/21 01:28:36;;;;;;;8.15;5.32;;;20.10;56.80;;;;;;5015599;28;20030;-60
2022/03/21 01:31:02;;;;;;;9.35;5.75;;;20.10;56.90;;;;;;5013529;28;20026;-60
2022/03/21 01:33:30;;;;;;;9.32;5.82;;;20.10;56.90;;;;;;5016900;28;20518;-60
2022/03/21 01:35:56;;;;;;;9.77;5.78;;;20.00;57.80;;;;;;5020444;28;20038;-60
2022/03/21 01:38:21;;;;;;;8.68;5.53;;;20.00;56.90;;;;;;5017884;28;20026;-61
2022/03/21 01:40:47;;;;;;;9.18;5.55;;;20.00;56.90;;;;;;5022682;28;20030;-60
2022/03/21 01:43:13;;;;;;;9.48;5.82;;;20.00;56.90;;;;;;5014817;28;20112;-60
2022/03/21 01:45:40;;;;;;;8.15;5.47;;;20.00;57.00;;;;;;5017654;28;20050;-60
2022/03/21 01:48:05;;;;;;;8.50;5.57;;;19.90;56.90;;;;;;5019774;28;20026;-60
2022/03/21 01:50:31;;;;;;;8.13;5.47;;;19.90;57.00;;;;;;5019981;28;20108;-60
2022/03/21 01:55:45;;;;;;;10.02;5.55;;;19.90;56.90;;;;;;5040147;28;20060;-60
2022/03/21 01:58:14;;;;;;;8.40;5.47;;;19.90;57.00;;;;;;5045034;28;20022;-60
2022/03/21 02:00:42;;;;;;;8.60;5.60;;;19.90;57.10;;;;;;5016869;28;20530;-60
2022/03/21 02:03:08;;;;;;;8.70;5.18;;;19.90;57.00;;;;;;5015995;28;20132;-60
2022/03/21 02:05:35;;;;;;;8.25;5.50;;;19.80;57.00;;;;;;5016180;28;20492;-60
2022/03/21 02:08:00;;;;;;;8.25;5.35;;;19.80;57.10;;;;;;5048403;28;20033;-60
2022/03/21 02:10:26;;;;;;;8.32;5.45;;;19.80;57.00;;;;;;5023320;28;20033;-60
2022/03/21 02:12:52;;;;;;;9.38;5.45;;;19.80;57.10;;;;;;5016213;28;20096;-60
2022/03/21 02:15:17;;;;;;;9.35;5.68;;;19.80;57.10;;;;;;5016564;28;20585;-60
2022/03/21 02:17:43;;;;;;;8.70;5.95;;;19.80;57.10;;;;;;5046130;28;20025;-60
2022/03/21 02:20:09;;;;;;;8.75;5.60;;;19.80;57.10;;;;;;5048839;28;20088;-60
2022/03/21 02:22:49;;;;;;;9.02;5.20;;;19.70;57.00;;;;;;5050870;28;20103;-60
2022/03/21 02:25:36;;;;;;;8.68;5.32;;;19.70;57.10;;;;;;5008891;28;20099;-60
2022/03/21 02:28:07;;;;;;;10.10;5.68;;;19.70;57.20;;;;;;5010922;28;20018;-60
2022/03/21 02:30:34;;;;;;;8.35;5.43;;;19.70;57.10;;;;;;5016375;28;20022;-60
2022/03/21 02:33:02;;;;;;;9.32;5.65;;;19.70;57.10;;;;;;5021349;28;20490;-60
2022/03/21 02:35:29;;;;;;;9.68;5.30;;;19.70;57.20;;;;;;5014583;28;20072;-61
2022/03/21 02:37:56;;;;;;;8.15;5.25;;;19.70;57.20;;;;;;5015685;28;20021;-60
2022/03/21 02:40:22;;;;;;;8.93;5.38;;;19.70;57.20;;;;;;5012958;28;20072;-60
2022/03/21 02:42:49;;;;;;;8.60;5.45;;;19.70;57.20;;;;;;5051554;28;20053;-60
2022/03/21 02:45:14;;;;;;;8.45;5.20;;;19.60;57.10;;;;;;5020766;28;20041;-60
2022/03/21 02:47:40;;;;;;;9.52;5.25;;;19.60;57.10;;;;;;5015494;28;20030;-60
2022/03/21 02:50:07;;;;;;;8.40;5.05;;;19.60;57.20;;;;;;5014389;28;20052;-60
2022/03/21 02:52:33;;;;;;;8.27;5.45;;;19.60;57.10;;;;;;5024229;28;20390;-60
2022/03/21 02:54:58;;;;;;;9.10;6.05;;;19.50;57.10;;;;;;5013512;28;20037;-60
2022/03/21 02:57:24;;;;;;;8.93;5.50;;;19.50;57.20;;;;;;5018925;28;20027;-60
2022/03/21 02:59:50;;;;;;;8.98;5.78;;;19.50;57.10;;;;;;5015840;28;20029;-60
2022/03/21 03:02:15;;;;;;;8.90;5.55;;;19.50;57.20;;;;;;5017403;28;20129;-60
2022/03/21 03:04:41;;;;;;;8.98;5.50;;;19.50;57.20;;;;;;5018694;28;20120;-60
2022/03/21 03:07:07;;;;;;;8.90;5.70;;;19.50;57.20;;;;;;5015912;28;20034;-60
2022/03/21 03:09:33;;;;;;;9.18;5.60;;;19.50;57.30;;;;;;5016118;28;20117;-60
2022/03/21 03:12:00;;;;;;;8.50;5.50;;;19.50;57.20;;;;;;5017189;28;20033;-60
2022/03/21 03:14:26;;;;;;;7.45;5.18;;;19.50;57.20;;;;;;5016570;28;20095;-61
2022/03/21 03:16:51;;;;;;;8.70;5.40;;;19.40;57.20;;;;;;5015702;28;20049;-60
2022/03/21 03:19:17;;;;;;;8.75;5.70;;;19.40;57.10;;;;;;5011357;28;20033;-60
2022/03/21 03:21:46;;;;;;;9.55;5.97;;;19.40;57.10;;;;;;5016255;28;20024;-60
2022/03/21 03:24:12;;;;;;;8.63;4.93;;;19.40;57.10;;;;;;5050672;28;20100;-60
2022/03/21 03:26:38;;;;;;;9.45;5.82;;;19.40;57.10;;;;;;5018128;28;20689;-60
2022/03/21 03:29:04;;;;;;;8.07;5.28;;;19.40;57.30;;;;;;5013927;28;20057;-60
2022/03/21 03:31:30;;;;;;;8.60;5.35;;;19.40;57.20;;;;;;5012791;28;20833;-60
2022/03/21 03:33:55;;;;;;;9.07;5.22;;;19.30;57.10;;;;;;5013067;28;20030;-60
2022/03/21 03:36:21;;;;;;;8.40;5.40;;;19.30;57.20;;;;;;5021663;28;20092;-60
2022/03/21 03:38:47;;;;;;;8.23;5.38;;;19.30;57.10;;;;;;5020080;28;20040;-60
2022/03/21 03:41:13;;;;;;;9.60;5.65;;;19.30;57.20;;;;;;5015366;28;20030;-60
2022/03/21 03:43:38;;;;;;;9.98;5.50;;;19.30;57.10;;;;;;5013481;28;20113;-60
2022/03/21 03:46:04;;;;;;;7.90;5.50;;;19.30;57.10;;;;;;5013863;28;20030;-60
2022/03/21 03:48:30;;;;;;;9.55;6.00;;;19.30;57.10;;;;;;5021396;28;20014;-60
2022/03/21 03:50:56;;;;;;;8.50;5.50;;;19.20;57.00;;;;;;5017188;28;20029;-60
2022/03/21 03:53:22;;;;;;;7.78;5.28;;;19.20;57.10;;;;;;5047653;28;20025;-60
2022/03/21 03:55:47;;;;;;;9.27;5.30;;;19.20;56.90;;;;;;5014228;28;20052;-60
2022/03/21 03:58:13;;;;;;;9.23;5.32;;;19.20;56.80;;;;;;5011560;28;20113;-60
2022/03/21 04:00:39;;;;;;;9.60;6.07;;;19.20;56.90;;;;;;5019623;28;20079;-60
2022/03/21 04:05:49;;;;;;;8.67;5.43;;;19.20;56.80;;;;;;5019207;28;20040;-60
2022/03/21 04:08:15;;;;;;;7.97;5.25;;;19.20;56.70;;;;;;5018519;28;20116;-60
2022/03/21 04:10:41;;;;;;;8.52;5.30;;;19.10;56.70;;;;;;5017368;28;20044;-60
2022/03/21 04:13:06;;;;;;;9.63;5.72;;;19.10;56.70;;;;;;5014738;28;20026;-60
2022/03/21 04:15:32;;;;;;;8.13;5.28;;;19.10;56.70;;;;;;5020832;28;20572;-60
2022/03/21 04:17:59;;;;;;;9.80;5.65;;;19.10;56.70;;;;;;5021989;28;20036;-60
2022/03/21 04:20:25;;;;;;;8.50;5.18;;;19.10;56.80;;;;;;5024275;28;20466;-60
2022/03/21 04:22:50;;;;;;;8.52;5.32;;;19.10;56.70;;;;;;5022189;28;20036;-60
2022/03/21 04:25:16;;;;;;;10.45;5.68;;;19.10;56.70;;;;;;5016564;28;20041;-60
2022/03/21 04:27:42;;;;;;;7.88;5.28;;;19.10;56.60;;;;;;5017643;28;20033;-60
2022/03/21 04:30:08;;;;;;;8.10;4.93;;;19.10;56.60;;;;;;5015189;28;20534;-60
2022/03/21 04:32:34;;;;;;;7.68;5.05;;;19.10;56.60;;;;;;5022814;28;20021;-60
2022/03/21 04:35:00;;;;;;;7.93;5.18;;;19.00;56.50;;;;;;5017674;28;20112;-60
2022/03/21 04:37:25;;;;;;;7.95;5.10;;;19.00;56.60;;;;;;5019830;28;20155;-60
2022/03/21 04:39:51;;;;;;;9.57;5.18;;;19.00;56.60;;;;;;5018093;28;20073;-60
2022/03/21 04:42:17;;;;;;;8.77;5.30;;;19.00;56.60;;;;;;5015534;28;20194;-60
2022/03/21 04:44:44;;;;;;;8.15;5.00;;;19.00;56.60;;;;;;5019319;28;20049;-60
2022/03/21 04:47:10;;;;;;;8.18;5.10;;;19.00;56.60;;;;;;5018261;28;20112;-60
2022/03/21 04:49:36;;;;;;;8.40;5.10;;;19.00;56.60;;;;;;5015640;28;20086;-60
2022/03/21 04:52:02;;;;;;;8.63;5.10;;;19.00;56.60;;;;;;5017813;28;20079;-60
2022/03/21 04:54:28;;;;;;;8.68;5.10;;;19.00;56.70;;;;;;5016958;28;20061;-60
2022/03/21 04:56:54;;;;;;;8.57;5.03;;;18.90;56.60;;;;;;5015501;28;20491;-60
2022/03/21 04:59:20;;;;;;;9.02;5.05;;;18.90;56.60;;;;;;5013137;28;20038;-60
2022/03/21 05:01:45;;;;;;;9.00;5.05;;;18.90;56.60;;;;;;5020831;28;20528;-60
2022/03/21 05:04:11;;;;;;;7.80;4.95;;;18.90;56.70;;;;;;5015878;28;20595;-60
2022/03/21 05:06:36;;;;;;;8.57;5.30;;;18.90;56.80;;;;;;5015270;28;20941;-60
2022/03/21 05:09:03;;;;;;;8.35;5.15;;;18.90;56.70;;;;;;5021217;28;20406;-60
2022/03/21 05:11:29;;;;;;;8.95;5.03;;;18.90;56.80;;;;;;5018427;28;20034;-60
2022/03/21 05:13:56;;;;;;;9.50;4.82;;;18.90;56.80;;;;;;5017841;28;20041;-60
2022/03/21 05:16:22;;;;;;;8.18;4.90;;;18.90;56.80;;;;;;5051308;28;20044;-60
2022/03/21 05:18:49;;;;;;;9.02;4.68;;;18.80;56.70;;;;;;5025436;28;20025;-60
2022/03/21 05:21:17;;;;;;;8.25;5.10;;;18.80;56.80;;;;;;5018807;28;20034;-60
2022/03/21 05:31:55;;;;;;;8.55;5.10;;;18.80;56.90;;;;;;5016892;28;20568;-60
2022/03/21 05:37:05;;;;;;;9.48;4.97;;;18.80;57.10;;;;;;5017085;28;20132;-60
2022/03/21 05:39:30;;;;;;;7.70;4.63;;;18.80;57.00;;;;;;5021467;28;20038;-60
2022/03/21 05:41:56;;;;;;;8.20;4.93;;;18.80;57.10;;;;;;5053665;28;20553;-60
2022/03/21 05:44:24;;;;;;;7.60;4.53;;;18.80;57.10;;;;;;5022887;28;20033;-60
2022/03/21 05:46:49;;;;;;;9.02;4.95;;;18.80;57.10;;;;;;5015173;28;20029;-58
2022/03/21 05:49:15;;;;;;;8.68;5.30;;;18.80;57.30;;;;;;5014085;28;20032;-58
2022/03/21 05:51:41;;;;;;;7.93;4.57;;;18.80;57.30;;;;;;5023852;28;20037;-58
2022/03/21 05:54:08;;;;;;;8.43;4.82;;;18.80;57.50;;;;;;5016151;28;20133;-58
2022/03/21 05:56:34;;;;;;;8.60;4.57;;;18.80;58.10;;;;;;5023073;28;20025;-58
2022/03/21 06:00:20;;;;;;;8.25;4.70;;;18.80;58.70;;;;;;5015456;28;20032;-58
2022/03/21 06:01:46;;;;;;;8.80;4.63;;;18.80;58.50;;;;;;5017532;28;20025;-58
2022/03/21 06:04:12;;;;;;;7.57;4.65;;;18.80;58.30;;;;;;5015044;28;20032;-58
2022/03/21 06:06:38;;;;;;;13.40;5.70;;;18.80;58.30;;;;;;5023319;28;20121;-58
2022/03/21 06:09:03;;;;;;;11.85;5.45;;;18.80;59.60;;;;;;5017515;28;20036;-59
2022/03/21 06:11:29;;;;;;;11.73;4.90;;;18.80;60.00;;;;;;5016058;28;20021;-58
2022/03/21 06:13:55;;;;;;;9.95;5.22;;;18.80;61.10;;;;;;5017434;28;20025;-57
2022/03/21 06:16:21;;;;;;;14.35;5.13;;;18.80;60.90;;;;;;5019361;28;20502;-57
2022/03/21 06:18:46;;;;;;;10.40;5.28;;;18.80;60.70;;;;;;5016129;28;20729;-57
2022/03/21 06:21:12;;;;;;;14.90;5.32;;;18.80;60.70;;;;;;5016642;28;20398;-57
2022/03/21 06:23:38;;;;;;;8.75;4.80;;;18.80;60.30;;;;;;5017710;28;20025;-57
2022/03/21 06:26:07;;;;;;;8.63;4.72;;;18.80;60.00;;;;;;5017636;28;20029;-57
2022/03/21 06:28:33;;;;;;;9.60;4.75;;;18.80;60.40;;;;;;5013368;28;20107;-57
2022/03/21 06:30:59;;;;;;;9.98;4.88;;;18.70;60.00;;;;;;5017941;28;20061;-57
2022/03/21 06:33:26;;;;;;;14.10;4.97;;;18.70;61.10;;;;;;5022441;28;20042;-57
2022/03/21 06:35:52;;;;;;;10.38;4.75;;;18.70;59.90;;;;;;5017114;28;20022;-57
2022/03/21 06:38:18;;;;;;;9.80;4.88;;;18.70;59.90;;;;;;5016760;28;20048;-57
2022/03/21 06:40:43;;;;;;;11.05;4.78;;;18.70;59.90;;;;;;5014954;28;20029;-57
2022/03/21 06:43:10;;;;;;;8.40;4.63;;;18.70;59.80;;;;;;5018071;28;20104;-58
2022/03/21 06:45:36;;;;;;;8.15;4.07;;;18.70;59.60;;;;;;5019690;28;20030;-57
2022/03/21 06:48:02;;;;;;;8.98;4.20;;;18.70;59.70;;;;;;5020063;28;20080;-57
2022/03/21 06:50:28;;;;;;;9.45;4.20;;;18.70;59.50;;;;;;5020172;28;20029;-57
2022/03/21 06:52:54;;;;;;;8.48;4.60;;;18.70;59.70;;;;;;5041011;28;20026;-58
2022/03/21 06:55:20;;;;;;;9.07;4.47;;;18.70;59.70;;;;;;5014744;28;20397;-57
2022/03/21 06:57:45;;;;;;;9.60;4.40;;;18.70;59.60;;;;;;5022523;28;20037;-58
2022/03/21 07:00:13;;;;;;;11.57;4.90;;;18.70;59.60;;;;;;5022943;28;20033;-57
2022/03/21 07:02:40;;;;;;;9.38;4.60;;;18.70;59.80;;;;;;5018477;28;20029;-57
2022/03/21 07:05:07;;;;;;;8.07;4.22;;;18.70;59.70;;;;;;5019067;28;20410;-57
2022/03/21 07:07:33;;;;;;;9.45;4.70;;;18.70;59.70;;;;;;5013078;28;20548;-57
2022/03/21 07:09:59;;;;;;;10.35;4.70;;;18.70;59.80;;;;;;5019679;28;20029;-57
2022/03/21 07:12:25;;;;;;;9.73;4.50;;;18.60;59.60;;;;;;5017230;28;20033;-57
2022/03/21 07:14:50;;;;;;;11.10;4.55;;;18.70;59.70;;;;;;5015019;28;20037;-57
2022/03/21 07:17:20;;;;;;;7.03;4.22;;;18.70;59.80;;;;;;5016911;28;20048;-57
2022/03/21 07:19:46;;;;;;;8.73;4.40;;;18.60;59.70;;;;;;5013783;28;20029;-57
2022/03/21 07:22:12;;;;;;;9.05;4.43;;;18.60;59.70;;;;;;5019432;28;20025;-57
2022/03/21 07:24:38;;;;;;;9.02;4.28;;;18.60;59.70;;;;;;5016153;28;20026;-57
2022/03/21 07:27:04;;;;;;;7.82;4.50;;;18.60;59.70;;;;;;5016605;28;20029;-57
2022/03/21 07:29:29;;;;;;;9.93;4.40;;;18.60;59.60;;;;;;5015427;28;20025;-57
2022/03/21 07:31:56;;;;;;;9.50;3.83;;;18.60;59.60;;;;;;5014616;28;20028;-57
2022/03/21 07:34:22;;;;;;;8.80;4.53;;;18.60;59.60;;;;;;5012236;28;20033;-57
2022/03/21 07:36:49;;;;;;;6.80;3.90;;;18.60;59.60;;;;;;5013723;28;20109;-57
2022/03/21 07:39:14;;;;;;;8.43;4.10;;;18.60;59.60;;;;;;5015927;28;20501;-57
2022/03/21 07:41:40;;;;;;;10.13;4.32;;;18.60;59.60;;;;;;5018479;28;20029;-57
2022/03/21 07:44:06;;;;;;;10.23;4.05;;;18.60;59.50;;;;;;5013995;28;20029;-57
2022/03/21 07:49:16;;;;;;;8.40;4.33;;;18.60;59.70;;;;;;5017926;28;20506;-57
2022/03/21 07:51:43;;;;;;;7.38;3.90;;;18.60;59.50;;;;;;5015809;28;20033;-57
2022/03/21 07:54:10;;;;;;;7.38;3.78;;;18.60;59.60;;;;;;5014687;28;20595;-57
2022/03/21 07:56:36;;;;;;;9.18;3.97;;;18.60;59.60;;;;;;5012680;28;20382;-57
2022/03/21 07:59:03;;;;;;;9.10;4.25;;;18.60;59.50;;;;;;5014464;28;20044;-57
2022/03/21 08:01:31;;;;;;;7.88;4.05;;;18.60;59.50;;;;;;5015666;28;20044;-57
2022/03/21 08:03:58;;;;;;;9.02;3.83;;;18.60;59.60;;;;;;5016217;28;20025;-57
2022/03/21 08:06:24;;;;;;;8.73;3.92;;;18.60;59.60;;;;;;5021805;28;20041;-57
2022/03/21 08:08:50;;;;;;;8.13;4.10;;;18.60;59.50;;;;;;5011986;28;20109;-57
2022/03/21 08:11:17;;;;;;;8.38;3.95;;;18.60;59.50;;;;;;5015120;28;20036;-57
2022/03/21 08:13:43;;;;;;;7.25;3.60;;;18.60;59.50;;;;;;5011806;28;20040;-58
2022/03/21 08:16:08;;;;;;;8.20;3.88;;;18.60;60.50;;;;;;5011392;28;20033;-57
2022/03/21 08:18:37;;;;;;;7.38;3.72;;;18.60;59.40;;;;;;5016481;28;20101;-57
2022/03/21 08:21:03;;;;;;;6.80;3.60;;;18.60;59.40;;;;;;5015095;28;20176;-57
2022/03/21 08:23:28;;;;;;;7.32;3.83;;;18.60;59.50;;;;;;5016315;28;20824;-57
2022/03/21 08:25:58;;;;;;;8.90;3.88;;;18.60;59.50;;;;;;5016706;28;20033;-57
2022/03/21 08:28:25;;;;;;;7.07;3.50;;;18.60;60.40;;;;;;5011056;28;24586;-58
2022/03/21 08:30:51;;;;;;;7.97;3.83;;;18.60;59.50;;;;;;5013845;28;20026;-57
2022/03/21 08:33:17;;;;;;;7.93;3.85;;;18.60;59.40;;;;;;5016185;28;20036;-57
2022/03/21 08:35:42;;;;;;;8.00;3.60;;;18.60;59.40;;;;;;5014518;28;20030;-57
2022/03/21 08:38:09;;;;;;;6.85;3.58;;;18.60;59.40;;;;;;5013162;28;20116;-57
2022/03/21 08:40:36;;;;;;;6.20;3.50;;;18.60;59.30;;;;;;5013076;28;20083;-57
2022/03/21 08:43:02;;;;;;;6.43;3.72;;;18.60;59.30;;;;;;5013437;28;20507;-57
2022/03/21 08:45:28;;;;;;;8.80;3.70;;;18.60;59.40;;;;;;5019663;28;20088;-57
2022/03/21 08:47:53;;;;;;;7.97;3.70;;;18.60;59.30;;;;;;5022192;28;20057;-57
2022/03/21 08:50:19;;;;;;;7.95;3.42;;;18.70;59.30;;;;;;5019505;28;20048;-57
2022/03/21 08:52:46;;;;;;;6.93;3.65;;;18.60;59.20;;;;;;5019468;28;20025;-57
2022/03/21 08:55:11;;;;;;;7.90;3.83;;;18.70;59.30;;;;;;5025665;28;20049;-57
2022/03/21 08:57:37;;;;;;;6.15;3.30;;;18.60;59.20;;;;;;5014805;28;20030;-57
2022/03/21 09:00:05;;;;;;;7.47;3.50;;;18.70;59.20;;;;;;5018613;28;20413;-57
2022/03/21 09:02:31;;;;;;;6.97;3.47;;;18.70;59.20;;;;;;5021387;28;20034;-57
2022/03/21 09:04:58;;;;;;;5.28;3.30;;;18.60;59.20;;;;;;5022060;28;20465;-57
2022/03/21 09:07:24;;;;;;;5.93;3.55;;;18.70;59.20;;;;;;5020135;28;20059;-57
2022/03/21 09:09:50;;;;;;;7.13;3.38;;;18.70;59.20;;;;;;5013908;28;20041;-57
2022/03/21 09:12:15;;;;;;;7.28;3.42;;;18.70;59.10;;;;;;5020328;28;20026;-57
2022/03/21 09:14:41;;;;;;;7.47;3.28;;;18.70;59.10;;;;;;5023494;28;20037;-57
2022/03/21 09:17:07;;;;;;;6.53;3.25;;;18.70;59.10;;;;;;5017660;28;20029;-57
2022/03/21 09:19:33;;;;;;;6.20;3.40;;;18.70;59.00;;;;;;5017943;28;20041;-57
2022/03/21 09:21:58;;;;;;;5.97;3.38;;;18.70;59.00;;;;;;5014969;28;20030;-57
2022/03/21 09:24:24;;;;;;;6.88;3.45;;;18.70;59.00;;;;;;5018810;28;20029;-57
2022/03/21 09:26:50;;;;;;;7.18;3.28;;;18.70;59.00;;;;;;5017380;28;20025;-57
2022/03/21 09:29:16;;;;;;;6.18;3.13;;;18.70;59.00;;;;;;5050242;28;20022;-57
2022/03/21 09:31:42;;;;;;;7.00;3.55;;;18.70;59.00;;;;;;5018980;28;20052;-56
2022/03/21 09:34:08;;;;;;;6.05;3.17;;;18.80;59.00;;;;;;5019659;28;20065;-57
2022/03/21 09:36:34;;;;;;;7.00;3.10;;;18.80;58.90;;;;;;5021446;28;20061;-57
2022/03/21 09:38:59;;;;;;;6.47;3.47;;;18.80;58.80;;;;;;5022093;28;20048;-58
2022/03/21 09:41:26;;;;;;;6.15;3.20;;;18.80;58.80;;;;;;5020984;28;20029;-57
2022/03/21 09:43:52;;;;;;;5.30;3.20;;;18.80;58.70;;;;;;5014733;28;20092;-57
2022/03/21 09:46:19;;;;;;;5.68;3.03;;;18.80;58.80;;;;;;5014373;28;20029;-57
2022/03/21 09:48:49;;;;;;;5.80;3.17;;;18.80;58.70;;;;;;5020299;28;20034;-57
2022/03/21 09:51:25;;;;;;;6.20;3.30;;;18.80;58.60;;;;;;5021278;28;20022;-57
2022/03/21 09:53:52;;;;;;;6.93;3.25;;;18.80;58.70;;;;;;5018917;28;20034;-57
2022/03/21 09:56:18;;;;;;;5.60;3.13;;;18.80;58.60;;;;;;5018446;28;20116;-57
2022/03/21 09:58:43;;;;;;;5.93;3.20;;;18.90;58.50;;;;;;5020961;28;20106;-57
2022/03/21 10:01:12;;;;;;;6.82;3.30;;;18.90;58.60;;;;;;5016737;28;20041;-57
2022/03/21 10:03:41;;;;;;;6.25;3.25;;;18.90;58.50;;;;;;5015361;28;20026;-57
2022/03/21 10:06:29;;;;;;;5.75;3.08;;;18.90;58.40;;;;;;5018557;28;20056;-57
2022/03/21 10:09:18;;;;;;;5.47;2.97;;;18.90;58.40;;;;;;5018268;28;20029;-57
2022/03/21 10:11:51;;;;;;;5.93;2.95;;;18.90;58.30;;;;;;5020832;28;20067;-57
2022/03/21 10:14:27;;;;;;;5.90;2.95;;;18.90;58.20;;;;;;5014459;28;20507;-57
2022/03/21 10:16:58;;;;;;;5.80;3.00;;;18.90;58.20;;;;;;5016969;28;20142;-57
2022/03/21 10:19:24;;;;;;;6.18;2.85;;;18.90;58.20;;;;;;5013687;28;20803;-57
2022/03/21 10:22:00;;;;;;;5.90;3.15;;;19.00;58.20;;;;;;5014603;28;20026;-57
2022/03/21 10:24:26;;;;;;;5.95;3.20;;;19.00;58.10;;;;;;5017258;28;20033;-57
2022/03/21 10:26:53;;;;;;;7.07;3.30;;;19.00;58.10;;;;;;5023558;28;20022;-57
2022/03/21 10:29:19;;;;;;;5.55;2.88;;;19.00;58.10;;;;;;5019070;28;20036;-57
2022/03/21 10:31:51;;;;;;;5.18;2.70;;;19.00;58.10;;;;;;5016273;28;20556;-57
2022/03/21 10:34:21;;;;;;;4.53;2.75;;;19.10;58.10;;;;;;5013214;28;20058;-57
2022/03/21 10:37:02;;;;;;;6.18;2.90;;;19.10;58.00;;;;;;5016016;28;20530;-57
2022/03/21 10:39:28;;;;;;;4.68;2.60;;;19.10;58.00;;;;;;5017080;28;20108;-57
2022/03/21 10:42:02;;;;;;;5.70;3.10;;;19.10;58.00;;;;;;5049284;28;20093;-57
2022/03/21 10:44:28;;;;;;;4.30;2.70;;;19.10;58.00;;;;;;5019177;28;20030;-57
2022/03/21 10:46:55;;;;;;;4.53;2.70;;;19.10;57.90;;;;;;5014948;28;20025;-57
2022/03/21 10:49:32;;;;;;;5.25;2.88;;;19.10;57.90;;;;;;5018092;28;20164;-57
2022/03/21 10:51:58;;;;;;;5.32;2.88;;;19.20;57.90;;;;;;5011863;28;20026;-58
2022/03/21 10:54:36;;;;;;;4.65;2.63;;;19.20;57.80;;;;;;5019803;28;20171;-58
2022/03/21 10:57:03;;;;;;;6.15;2.63;;;19.20;57.80;;;;;;5012956;28;20026;-57
2022/03/21 10:59:28;;;;;;;4.82;2.65;;;19.20;57.70;;;;;;5023031;28;20033;-57
2022/03/21 11:02:17;;;;;;;4.30;2.47;;;19.20;57.60;;;;;;5015483;28;20029;-57
2022/03/21 11:04:44;;;;;;;4.72;2.70;;;19.30;57.70;;;;;;5013662;28;20390;-57
2022/03/21 11:07:13;;;;;;;3.97;2.63;;;19.30;57.60;;;;;;5018448;28;20538;-57
2022/03/21 11:09:41;;;;;;;5.88;2.78;;;19.30;57.50;;;;;;5010709;28;20026;-57
2022/03/21 11:12:08;;;;;;;6.15;2.47;;;19.40;57.60;;;;;;5018165;28;20592;-57
2022/03/21 11:14:40;;;;;;;4.85;2.60;;;19.40;57.60;;;;;;5015428;28;20051;-57
2022/03/21 11:17:06;;;;;;;5.20;2.47;;;19.40;57.50;;;;;;5019381;28;20465;-57
2022/03/21 11:19:32;;;;;;;5.15;2.60;;;19.40;57.40;;;;;;5017293;28;20930;-57
2022/03/21 11:22:00;;;;;;;6.05;2.70;;;19.50;57.40;;;;;;5017887;28;20510;-57
2022/03/21 11:24:30;;;;;;;5.47;2.47;;;19.50;57.40;;;;;;5018644;28;20069;-57
2022/03/21 11:27:13;;;;;;;3.70;2.38;;;19.50;57.30;;;;;;5048704;28;20055;-57
2022/03/21 11:30:06;;;;;;;4.95;2.50;;;19.50;57.20;;;;;;5027662;28;20372;-57
2022/03/21 11:33:04;;;;;;;5.82;2.60;;;19.60;57.20;;;;;;5018218;28;20029;-57
2022/03/21 11:35:30;;;;;;;5.63;2.60;;;19.60;57.20;;;;;;5018004;28;20043;-57
2022/03/21 11:38:31;;;;;;;4.32;2.40;;;19.70;57.20;;;;;;5015311;28;20033;-57
2022/03/21 11:41:14;;;;;;;4.80;2.60;;;19.70;57.20;;;;;;5020466;28;20060;-57
2022/03/21 11:43:41;;;;;;;5.45;2.53;;;19.70;57.20;;;;;;5013127;28;20493;-57
2022/03/21 11:46:25;;;;;;;5.20;2.38;;;19.70;57.10;;;;;;5013731;28;20021;-57
2022/03/21 11:48:52;;;;;;;5.18;2.60;;;19.80;57.10;;;;;;5013743;28;20037;-57
2022/03/21 11:51:17;;;;;;;4.03;2.30;;;19.80;57.00;;;;;;5044925;28;20105;-57
2022/03/21 11:53:49;;;;;;;6.07;2.78;;;19.90;57.00;;;;;;5015588;28;20537;-57
2022/03/21 11:56:16;;;;;;;3.97;2.40;;;19.90;57.00;;;;;;5015596;28;20091;-57
2022/03/21 11:58:42;;;;;;;4.60;2.40;;;19.90;56.90;;;;;;5019470;28;20040;-56
2022/03/21 12:01:08;;;;;;;5.93;2.30;;;19.90;56.90;;;;;;5017227;28;20032;-57
2022/03/21 12:03:34;;;;;;;4.45;2.30;;;20.00;56.90;;;;;;5021869;28;20044;-57
2022/03/21 12:06:23;;;;;;;5.45;2.30;;;20.00;56.80;;;;;;5018183;28;20034;-57
2022/03/21 12:08:53;;;;;;;4.22;2.22;;;20.00;56.70;;;;;;5016210;28;20591;-57
2022/03/21 12:11:40;;;;;;;3.50;2.15;;;20.10;56.70;;;;;;5016633;28;20033;-57
2022/03/21 12:14:36;;;;;;;4.18;2.38;;;20.10;56.70;;;;;;5014316;28;20060;-57
2022/03/21 12:17:01;;;;;;;4.35;2.25;;;20.20;56.70;;;;;;5016425;28;20088;-57
2022/03/21 12:19:48;;;;;;;3.60;2.17;;;20.20;56.60;;;;;;5013674;28;20473;-57
2022/03/21 12:25:08;;;;;;;4.20;2.42;;;20.30;56.60;;;;;;5011513;28;20472;-57
2022/03/21 12:27:45;;;;;;;4.25;2.17;;;20.30;56.40;;;;;;5015763;28;20034;-57
2022/03/21 12:30:23;;;;;;;4.07;2.17;;;20.30;56.40;;;;;;5012135;28;20120;-57
2022/03/21 12:32:55;;;;;;;3.28;2.10;;;20.40;56.40;;;;;;5015748;28;20776;-57
2022/03/21 12:35:45;;;;;;;3.70;1.98;;;20.40;56.30;;;;;;5015133;28;20554;-57
2022/03/21 12:38:11;;;;;;;3.88;2.00;;;20.50;56.30;;;;;;5012030;28;20030;-57
2022/03/21 12:40:50;;;;;;;4.15;2.40;;;20.50;56.30;;;;;;5019941;28;20059;-57
2022/03/21 12:43:19;;;;;;;3.90;2.30;;;20.50;56.20;;;;;;5014948;28;20064;-57
2022/03/21 12:45:45;;;;;;;4.13;2.10;;;20.60;56.20;;;;;;5012733;28;20052;-57
2022/03/21 12:48:14;;;;;;;3.10;1.90;;;20.60;56.10;;;;;;5021981;28;20065;-57
2022/03/21 12:50:40;;;;;;;4.45;2.20;;;20.60;56.10;;;;;;5015652;28;20790;-57
2022/03/21 12:53:07;;;;;;;3.70;1.92;;;20.70;56.10;;;;;;5014959;28;20033;-57
2022/03/21 12:55:33;;;;;;;4.32;2.15;;;20.70;56.00;;;;;;5011094;28;20038;-57
2022/03/21 12:58:00;;;;;;;3.85;2.28;;;20.80;56.00;;;;;;5011995;28;20024;-57
2022/03/21 13:00:28;;;;;;;3.35;2.00;;;20.80;55.80;;;;;;5017231;28;20034;-57
2022/03/21 13:02:56;;;;;;;4.35;2.10;;;20.80;55.80;;;;;;5015932;28;20046;-57
2022/03/21 13:10:51;;;;;;;3.95;2.08;;;20.90;55.60;;;;;;5012508;28;19915;-57
2022/03/21 13:13:17;;;;;;;3.90;2.15;;;21.00;55.60;;;;;;5012849;28;20030;-57
2022/03/21 13:15:43;;;;;;;5.95;1.98;;;21.00;55.50;;;;;;5013396;28;20042;-58